sensor_id;sensor_type;location;lat;lon;timestamp;P1;durP1;ratioP1;P2;durP2;ratioP2
1831;SDS011;1680;48.106;11.708;2023-02-21T00:02:38;3.70;;;1.97;;
1831;SDS011;1680;48.106;11.708;2023-02-21T00:05:25;2.27;;;1.80;;
1831;SDS011;1680;48.106;11.708;2023-02-21T00:08:10;2.13;;;1.93;;
1831;SDS011;1680;48.106;11.708;2023-02-21T00:10:54;2.23;;;1.70;;
1831;SDS011;1680;48.106;11.708;2023-02-21T00:13:40;2.10;;;1.90;;
1831;SDS011;1680;48.106;11.708;2023-02-21T00:16:25;2.20;;;1.73;;
1831;SDS011;1680;48.106;11.708;2023-02-21T00:19:09;2.20;;;1.87;;
1831;SDS011;1680;48.106;11.708;2023-02-21T00:21:56;4.37;;;1.90;;
1831;SDS011;1680;48.106;11.708;2023-02-21T00:24:41;1.97;;;1.80;;
1831;SDS011;1680;48.106;11.708;2023-02-21T00:27:26;2.10;;;1.80;;
1831;SDS011;1680;48.106;11.708;2023-02-21T00:30:11;2.20;;;1.87;;
1831;SDS011;1680;48.106;11.708;2023-02-21T00:32:58;1.80;;;1.70;;
1831;SDS011;1680;48.106;11.708;2023-02-21T00:35:43;3.30;;;2.00;;
1831;SDS011;1680;48.106;11.708;2023-02-21T00:38:29;3.53;;;2.03;;
1831;SDS011;1680;48.106;11.708;2023-02-21T00:41:14;2.83;;;2.07;;
1831;SDS011;1680;48.106;11.708;2023-02-21T00:43:59;2.10;;;1.93;;
1831;SDS011;1680;48.106;11.708;2023-02-21T00:46:44;2.33;;;2.10;;
1831;SDS011;1680;48.106;11.708;2023-02-21T00:49:29;2.10;;;1.90;;
1831;SDS011;1680;48.106;11.708;2023-02-21T00:52:13;2.17;;;1.90;;
1831;SDS011;1680;48.106;11.708;2023-02-21T00:54:59;2.30;;;2.10;;
1831;SDS011;1680;48.106;11.708;2023-02-21T00:57:45;2.13;;;1.93;;
1831;SDS011;1680;48.106;11.708;2023-02-21T01:00:30;2.87;;;2.00;;
1831;SDS011;1680;48.106;11.708;2023-02-21T01:03:15;2.17;;;1.97;;
1831;SDS011;1680;48.106;11.708;2023-02-21T01:05:59;2.50;;;2.17;;
1831;SDS011;1680;48.106;11.708;2023-02-21T01:08:45;2.80;;;2.13;;
1831;SDS011;1680;48.106;11.708;2023-02-21T01:11:32;2.40;;;2.20;;
1831;SDS011;1680;48.106;11.708;2023-02-21T01:14:17;2.33;;;2.13;;
1831;SDS011;1680;48.106;11.708;2023-02-21T01:17:02;2.03;;;1.83;;
1831;SDS011;1680;48.106;11.708;2023-02-21T01:19:46;2.80;;;2.40;;
1831;SDS011;1680;48.106;11.708;2023-02-21T01:22:31;2.77;;;2.30;;
1831;SDS011;1680;48.106;11.708;2023-02-21T01:25:16;2.83;;;1.93;;
1831;SDS011;1680;48.106;11.708;2023-02-21T01:28:02;2.58;;;1.90;;
1831;SDS011;1680;48.106;11.708;2023-02-21T01:30:47;2.17;;;2.00;;
1831;SDS011;1680;48.106;11.708;2023-02-21T01:33:36;2.70;;;1.90;;
1831;SDS011;1680;48.106;11.708;2023-02-21T01:36:22;1.80;;;1.70;;
1831;SDS011;1680;48.106;11.708;2023-02-21T01:39:08;2.10;;;1.93;;
1831;SDS011;1680;48.106;11.708;2023-02-21T01:41:54;2.47;;;2.20;;
1831;SDS011;1680;48.106;11.708;2023-02-21T01:44:41;2.93;;;2.27;;
1831;SDS011;1680;48.106;11.708;2023-02-21T01:47:28;2.20;;;1.98;;
1831;SDS011;1680;48.106;11.708;2023-02-21T01:50:15;2.20;;;2.00;;
1831;SDS011;1680;48.106;11.708;2023-02-21T01:53:05;2.07;;;1.80;;
1831;SDS011;1680;48.106;11.708;2023-02-21T01:55:53;2.20;;;2.00;;
1831;SDS011;1680;48.106;11.708;2023-02-21T01:58:40;1.97;;;1.80;;
1831;SDS011;1680;48.106;11.708;2023-02-21T02:01:32;2.83;;;2.50;;
1831;SDS011;1680;48.106;11.708;2023-02-21T02:04:21;2.60;;;1.80;;
1831;SDS011;1680;48.106;11.708;2023-02-21T02:07:06;2.47;;;2.10;;
1831;SDS011;1680;48.106;11.708;2023-02-21T02:09:52;2.08;;;1.88;;
1831;SDS011;1680;48.106;11.708;2023-02-21T02:15:48;2.73;;;2.00;;
1831;SDS011;1680;48.106;11.708;2023-02-21T02:18:38;2.10;;;1.98;;
1831;SDS011;1680;48.106;11.708;2023-02-21T02:27:36;2.60;;;2.40;;
1831;SDS011;1680;48.106;11.708;2023-02-21T02:30:15;2.90;;;2.30;;
1831;SDS011;1680;48.106;11.708;2023-02-21T02:33:08;3.60;;;2.42;;
1831;SDS011;1680;48.106;11.708;2023-02-21T02:35:58;2.70;;;2.50;;
1831;SDS011;1680;48.106;11.708;2023-02-21T02:38:33;2.40;;;2.20;;
1831;SDS011;1680;48.106;11.708;2023-02-21T02:41:10;2.67;;;2.30;;
1831;SDS011;1680;48.106;11.708;2023-02-21T02:43:54;2.28;;;2.08;;
1831;SDS011;1680;48.106;11.708;2023-02-21T02:46:27;2.13;;;1.92;;
1831;SDS011;1680;48.106;11.708;2023-02-21T02:48:58;2.88;;;1.85;;
1831;SDS011;1680;48.106;11.708;2023-02-21T02:51:29;2.03;;;1.83;;
1831;SDS011;1680;48.106;11.708;2023-02-21T02:53:59;2.70;;;1.90;;
1831;SDS011;1680;48.106;11.708;2023-02-21T02:56:27;2.30;;;2.10;;
1831;SDS011;1680;48.106;11.708;2023-02-21T02:58:55;2.20;;;2.00;;
1831;SDS011;1680;48.106;11.708;2023-02-21T03:01:39;2.80;;;1.97;;
1831;SDS011;1680;48.106;11.708;2023-02-21T03:04:29;2.20;;;2.00;;
1831;SDS011;1680;48.106;11.708;2023-02-21T03:07:10;2.77;;;2.00;;
1831;SDS011;1680;48.106;11.708;2023-02-21T03:09:45;3.75;;;1.98;;
1831;SDS011;1680;48.106;11.708;2023-02-21T03:12:19;2.40;;;2.20;;
1831;SDS011;1680;48.106;11.708;2023-02-21T03:14:53;4.15;;;2.10;;
1831;SDS011;1680;48.106;11.708;2023-02-21T03:17:26;2.85;;;2.33;;
1831;SDS011;1680;48.106;11.708;2023-02-21T03:19:57;2.35;;;2.10;;
1831;SDS011;1680;48.106;11.708;2023-02-21T03:22:30;2.55;;;2.35;;
1831;SDS011;1680;48.106;11.708;2023-02-21T03:24:58;2.95;;;2.35;;
1831;SDS011;1680;48.106;11.708;2023-02-21T03:27:28;4.13;;;2.08;;
1831;SDS011;1680;48.106;11.708;2023-02-21T03:29:57;3.10;;;1.95;;
1831;SDS011;1680;48.106;11.708;2023-02-21T03:32:27;2.47;;;2.22;;
1831;SDS011;1680;48.106;11.708;2023-02-21T03:34:57;3.05;;;2.17;;
1831;SDS011;1680;48.106;11.708;2023-02-21T03:37:28;3.25;;;2.67;;
1831;SDS011;1680;48.106;11.708;2023-02-21T03:39:59;5.35;;;2.90;;
1831;SDS011;1680;48.106;11.708;2023-02-21T03:42:27;6.18;;;3.50;;
1831;SDS011;1680;48.106;11.708;2023-02-21T03:44:54;6.35;;;4.00;;
1831;SDS011;1680;48.106;11.708;2023-02-21T03:47:21;9.18;;;5.20;;
1831;SDS011;1680;48.106;11.708;2023-02-21T03:49:49;12.48;;;5.82;;
1831;SDS011;1680;48.106;11.708;2023-02-21T03:52:16;9.15;;;5.95;;
1831;SDS011;1680;48.106;11.708;2023-02-21T03:54:45;10.15;;;5.90;;
1831;SDS011;1680;48.106;11.708;2023-02-21T03:57:12;8.65;;;5.30;;
1831;SDS011;1680;48.106;11.708;2023-02-21T03:59:40;9.80;;;5.90;;
1831;SDS011;1680;48.106;11.708;2023-02-21T04:02:07;9.40;;;5.03;;
1831;SDS011;1680;48.106;11.708;2023-02-21T04:04:34;11.70;;;6.60;;
1831;SDS011;1680;48.106;11.708;2023-02-21T04:07:02;9.68;;;5.80;;
1831;SDS011;1680;48.106;11.708;2023-02-21T04:09:29;13.50;;;7.20;;
1831;SDS011;1680;48.106;11.708;2023-02-21T04:11:57;11.77;;;6.05;;
1831;SDS011;1680;48.106;11.708;2023-02-21T04:14:25;12.30;;;6.78;;
1831;SDS011;1680;48.106;11.708;2023-02-21T04:16:52;9.82;;;6.10;;
1831;SDS011;1680;48.106;11.708;2023-02-21T04:19:19;10.90;;;4.85;;
1831;SDS011;1680;48.106;11.708;2023-02-21T04:21:47;6.72;;;4.50;;
1831;SDS011;1680;48.106;11.708;2023-02-21T04:24:14;6.72;;;4.35;;
1831;SDS011;1680;48.106;11.708;2023-02-21T04:26:42;6.27;;;3.97;;
1831;SDS011;1680;48.106;11.708;2023-02-21T04:29:11;5.15;;;4.00;;
1831;SDS011;1680;48.106;11.708;2023-02-21T04:31:38;8.10;;;3.75;;
1831;SDS011;1680;48.106;11.708;2023-02-21T04:34:05;5.88;;;3.78;;
1831;SDS011;1680;48.106;11.708;2023-02-21T04:36:33;5.00;;;3.92;;
1831;SDS011;1680;48.106;11.708;2023-02-21T04:39:01;6.57;;;4.30;;
1831;SDS011;1680;48.106;11.708;2023-02-21T04:41:29;7.03;;;3.95;;
1831;SDS011;1680;48.106;11.708;2023-02-21T04:43:56;6.35;;;4.00;;
1831;SDS011;1680;48.106;11.708;2023-02-21T04:46:25;6.72;;;3.95;;
1831;SDS011;1680;48.106;11.708;2023-02-21T04:48:52;6.88;;;4.22;;
1831;SDS011;1680;48.106;11.708;2023-02-21T04:51:20;4.85;;;3.60;;
1831;SDS011;1680;48.106;11.708;2023-02-21T04:53:49;3.55;;;2.88;;
1831;SDS011;1680;48.106;11.708;2023-02-21T04:56:17;3.00;;;2.70;;
1831;SDS011;1680;48.106;11.708;2023-02-21T04:58:46;3.03;;;2.60;;
1831;SDS011;1680;48.106;11.708;2023-02-21T05:01:14;3.78;;;3.03;;
1831;SDS011;1680;48.106;11.708;2023-02-21T05:03:43;3.20;;;2.78;;
1831;SDS011;1680;48.106;11.708;2023-02-21T05:06:15;5.07;;;2.90;;
1831;SDS011;1680;48.106;11.708;2023-02-21T05:08:43;2.42;;;2.20;;
1831;SDS011;1680;48.106;11.708;2023-02-21T05:11:10;5.50;;;2.33;;
1831;SDS011;1680;48.106;11.708;2023-02-21T05:13:38;2.92;;;2.30;;
1831;SDS011;1680;48.106;11.708;2023-02-21T05:16:05;2.00;;;1.80;;
1831;SDS011;1680;48.106;11.708;2023-02-21T05:18:33;3.20;;;2.30;;
1831;SDS011;1680;48.106;11.708;2023-02-21T05:21:03;3.30;;;2.38;;
1831;SDS011;1680;48.106;11.708;2023-02-21T05:23:32;2.23;;;1.93;;
1831;SDS011;1680;48.106;11.708;2023-02-21T05:26:00;3.20;;;1.83;;
1831;SDS011;1680;48.106;11.708;2023-02-21T05:28:28;5.15;;;2.10;;
1831;SDS011;1680;48.106;11.708;2023-02-21T05:30:55;2.10;;;1.77;;
1831;SDS011;1680;48.106;11.708;2023-02-21T05:33:23;2.27;;;2.00;;
1831;SDS011;1680;48.106;11.708;2023-02-21T05:35:50;2.28;;;1.90;;
1831;SDS011;1680;48.106;11.708;2023-02-21T05:38:19;2.90;;;2.13;;
1831;SDS011;1680;48.106;11.708;2023-02-21T05:40:48;2.50;;;2.30;;
1831;SDS011;1680;48.106;11.708;2023-02-21T05:43:15;5.00;;;2.43;;
1831;SDS011;1680;48.106;11.708;2023-02-21T05:45:43;5.23;;;2.47;;
1831;SDS011;1680;48.106;11.708;2023-02-21T05:48:10;5.47;;;2.83;;
1831;SDS011;1680;48.106;11.708;2023-02-21T05:50:37;5.95;;;3.08;;
1831;SDS011;1680;48.106;11.708;2023-02-21T05:53:05;7.40;;;3.60;;
1831;SDS011;1680;48.106;11.708;2023-02-21T05:55:35;7.40;;;3.40;;
1831;SDS011;1680;48.106;11.708;2023-02-21T05:58:03;8.13;;;3.60;;
1831;SDS011;1680;48.106;11.708;2023-02-21T06:00:30;7.10;;;3.83;;
1831;SDS011;1680;48.106;11.708;2023-02-21T06:02:58;5.32;;;3.22;;
1831;SDS011;1680;48.106;11.708;2023-02-21T06:05:25;5.30;;;2.97;;
1831;SDS011;1680;48.106;11.708;2023-02-21T06:07:52;6.60;;;3.43;;
1831;SDS011;1680;48.106;11.708;2023-02-21T06:10:19;3.83;;;3.33;;
1831;SDS011;1680;48.106;11.708;2023-02-21T06:12:48;4.30;;;2.77;;
1831;SDS011;1680;48.106;11.708;2023-02-21T06:15:16;4.60;;;2.90;;
1831;SDS011;1680;48.106;11.708;2023-02-21T06:17:43;4.47;;;2.87;;
1831;SDS011;1680;48.106;11.708;2023-02-21T06:20:12;21.97;;;19.60;;
1831;SDS011;1680;48.106;11.708;2023-02-21T06:22:41;5.10;;;4.40;;
1831;SDS011;1680;48.106;11.708;2023-02-21T06:25:08;3.30;;;2.60;;
1831;SDS011;1680;48.106;11.708;2023-02-21T06:27:36;5.20;;;2.77;;
1831;SDS011;1680;48.106;11.708;2023-02-21T06:30:05;4.18;;;2.83;;
1831;SDS011;1680;48.106;11.708;2023-02-21T06:32:33;2.30;;;2.10;;
1831;SDS011;1680;48.106;11.708;2023-02-21T06:35:00;3.50;;;2.03;;
1831;SDS011;1680;48.106;11.708;2023-02-21T06:37:28;2.17;;;1.97;;
1831;SDS011;1680;48.106;11.708;2023-02-21T06:39:55;2.30;;;1.80;;
1831;SDS011;1680;48.106;11.708;2023-02-21T06:42:22;4.77;;;1.90;;
1831;SDS011;1680;48.106;11.708;2023-02-21T06:44:49;3.57;;;2.10;;
1831;SDS011;1680;48.106;11.708;2023-02-21T06:47:18;2.93;;;1.80;;
1831;SDS011;1680;48.106;11.708;2023-02-21T06:49:45;4.23;;;1.97;;
1831;SDS011;1680;48.106;11.708;2023-02-21T06:52:12;3.10;;;1.90;;
1831;SDS011;1680;48.106;11.708;2023-02-21T06:54:40;3.43;;;1.90;;
1831;SDS011;1680;48.106;11.708;2023-02-21T06:57:07;4.30;;;2.10;;
1831;SDS011;1680;48.106;11.708;2023-02-21T06:59:34;3.50;;;1.97;;
1831;SDS011;1680;48.106;11.708;2023-02-21T07:02:02;5.30;;;2.17;;
1831;SDS011;1680;48.106;11.708;2023-02-21T07:04:31;4.73;;;2.20;;
1831;SDS011;1680;48.106;11.708;2023-02-21T07:06:58;3.57;;;2.50;;
1831;SDS011;1680;48.106;11.708;2023-02-21T07:09:25;2.73;;;2.33;;
1831;SDS011;1680;48.106;11.708;2023-02-21T07:11:52;3.47;;;2.60;;
1831;SDS011;1680;48.106;11.708;2023-02-21T07:14:19;4.97;;;2.10;;
1831;SDS011;1680;48.106;11.708;2023-02-21T07:16:47;4.33;;;2.40;;
1831;SDS011;1680;48.106;11.708;2023-02-21T07:19:14;5.97;;;2.37;;
1831;SDS011;1680;48.106;11.708;2023-02-21T07:21:43;2.80;;;2.00;;
1831;SDS011;1680;48.106;11.708;2023-02-21T07:24:10;3.37;;;2.53;;
1831;SDS011;1680;48.106;11.708;2023-02-21T07:26:39;3.13;;;1.93;;
1831;SDS011;1680;48.106;11.708;2023-02-21T07:29:06;7.40;;;2.17;;
1831;SDS011;1680;48.106;11.708;2023-02-21T07:31:33;6.47;;;2.17;;
1831;SDS011;1680;48.106;11.708;2023-02-21T07:34:00;6.23;;;2.30;;
1831;SDS011;1680;48.106;11.708;2023-02-21T07:36:28;3.90;;;2.20;;
1831;SDS011;1680;48.106;11.708;2023-02-21T07:38:56;2.40;;;2.20;;
1831;SDS011;1680;48.106;11.708;2023-02-21T07:41:23;2.77;;;2.27;;
1831;SDS011;1680;48.106;11.708;2023-02-21T07:43:51;2.80;;;1.90;;
1831;SDS011;1680;48.106;11.708;2023-02-21T07:46:18;4.17;;;2.40;;
1831;SDS011;1680;48.106;11.708;2023-02-21T07:48:45;2.47;;;2.00;;
1831;SDS011;1680;48.106;11.708;2023-02-21T07:51:12;2.43;;;2.00;;
1831;SDS011;1680;48.106;11.708;2023-02-21T07:53:40;2.20;;;2.00;;
1831;SDS011;1680;48.106;11.708;2023-02-21T07:56:08;3.80;;;1.80;;
1831;SDS011;1680;48.106;11.708;2023-02-21T07:58:36;2.40;;;2.20;;
1831;SDS011;1680;48.106;11.708;2023-02-21T08:01:03;2.40;;;2.20;;
1831;SDS011;1680;48.106;11.708;2023-02-21T08:03:31;3.10;;;2.23;;
1831;SDS011;1680;48.106;11.708;2023-02-21T08:05:58;2.20;;;2.00;;
1831;SDS011;1680;48.106;11.708;2023-02-21T08:08:25;3.10;;;2.00;;
1831;SDS011;1680;48.106;11.708;2023-02-21T08:10:53;3.47;;;2.20;;
1831;SDS011;1680;48.106;11.708;2023-02-21T08:13:23;2.57;;;1.90;;
1831;SDS011;1680;48.106;11.708;2023-02-21T08:15:50;2.57;;;1.80;;
1831;SDS011;1680;48.106;11.708;2023-02-21T08:18:18;3.90;;;2.10;;
1831;SDS011;1680;48.106;11.708;2023-02-21T08:20:48;2.70;;;1.80;;
1831;SDS011;1680;48.106;11.708;2023-02-21T08:23:15;5.07;;;2.07;;
1831;SDS011;1680;48.106;11.708;2023-02-21T08:25:43;5.17;;;2.30;;
1831;SDS011;1680;48.106;11.708;2023-02-21T08:28:11;2.63;;;2.17;;
1831;SDS011;1680;48.106;11.708;2023-02-21T08:30:40;5.27;;;2.10;;
1831;SDS011;1680;48.106;11.708;2023-02-21T08:33:07;2.60;;;1.70;;
1831;SDS011;1680;48.106;11.708;2023-02-21T08:35:35;2.47;;;1.80;;
1831;SDS011;1680;48.106;11.708;2023-02-21T08:38:02;3.63;;;1.97;;
1831;SDS011;1680;48.106;11.708;2023-02-21T08:40:30;2.90;;;1.90;;
1831;SDS011;1680;48.106;11.708;2023-02-21T08:42:58;2.50;;;1.50;;
1831;SDS011;1680;48.106;11.708;2023-02-21T08:45:26;5.23;;;2.17;;
1831;SDS011;1680;48.106;11.708;2023-02-21T08:47:56;3.97;;;1.87;;
1831;SDS011;1680;48.106;11.708;2023-02-21T08:50:25;3.63;;;2.07;;
1831;SDS011;1680;48.106;11.708;2023-02-21T08:52:54;2.80;;;2.10;;
1831;SDS011;1680;48.106;11.708;2023-02-21T08:55:22;5.40;;;2.27;;
1831;SDS011;1680;48.106;11.708;2023-02-21T08:57:51;4.50;;;2.20;;
1831;SDS011;1680;48.106;11.708;2023-02-21T09:00:21;2.20;;;2.00;;
1831;SDS011;1680;48.106;11.708;2023-02-21T09:02:52;3.80;;;2.20;;
1831;SDS011;1680;48.106;11.708;2023-02-21T09:05:22;2.40;;;1.83;;
1831;SDS011;1680;48.106;11.708;2023-02-21T09:07:51;3.03;;;1.93;;
1831;SDS011;1680;48.106;11.708;2023-02-21T09:10:23;4.57;;;1.73;;
1831;SDS011;1680;48.106;11.708;2023-02-21T09:12:51;3.60;;;2.27;;
1831;SDS011;1680;48.106;11.708;2023-02-21T09:15:18;3.57;;;2.03;;
1831;SDS011;1680;48.106;11.708;2023-02-21T09:17:46;2.60;;;2.30;;
1831;SDS011;1680;48.106;11.708;2023-02-21T09:20:15;5.13;;;2.40;;
1831;SDS011;1680;48.106;11.708;2023-02-21T09:22:48;4.13;;;2.30;;
1831;SDS011;1680;48.106;11.708;2023-02-21T09:25:17;4.97;;;2.27;;
1831;SDS011;1680;48.106;11.708;2023-02-21T09:27:48;3.37;;;2.20;;
1831;SDS011;1680;48.106;11.708;2023-02-21T09:30:16;2.83;;;2.27;;
1831;SDS011;1680;48.106;11.708;2023-02-21T09:32:46;3.70;;;2.27;;
1831;SDS011;1680;48.106;11.708;2023-02-21T09:35:14;2.63;;;2.30;;
1831;SDS011;1680;48.106;11.708;2023-02-21T09:37:43;5.80;;;2.20;;
1831;SDS011;1680;48.106;11.708;2023-02-21T09:40:15;3.53;;;2.13;;
1831;SDS011;1680;48.106;11.708;2023-02-21T09:42:48;3.63;;;2.30;;
1831;SDS011;1680;48.106;11.708;2023-02-21T09:45:16;2.53;;;1.93;;
1831;SDS011;1680;48.106;11.708;2023-02-21T09:47:47;2.93;;;1.80;;
1831;SDS011;1680;48.106;11.708;2023-02-21T09:50:17;3.00;;;1.90;;
1831;SDS011;1680;48.106;11.708;2023-02-21T09:52:52;5.27;;;1.70;;
1831;SDS011;1680;48.106;11.708;2023-02-21T09:55:26;1.60;;;1.50;;
1831;SDS011;1680;48.106;11.708;2023-02-21T09:57:55;2.93;;;1.50;;
1831;SDS011;1680;48.106;11.708;2023-02-21T10:00:23;1.70;;;1.60;;
1831;SDS011;1680;48.106;11.708;2023-02-21T10:02:56;2.63;;;2.03;;
1831;SDS011;1680;48.106;11.708;2023-02-21T10:05:32;5.03;;;1.70;;
1831;SDS011;1680;48.106;11.708;2023-02-21T10:08:08;1.87;;;1.77;;
1831;SDS011;1680;48.106;11.708;2023-02-21T10:10:46;2.20;;;1.80;;
1831;SDS011;1680;48.106;11.708;2023-02-21T10:13:22;3.70;;;1.77;;
1831;SDS011;1680;48.106;11.708;2023-02-21T10:16:00;1.53;;;1.43;;
1831;SDS011;1680;48.106;11.708;2023-02-21T10:18:32;2.63;;;1.80;;
1831;SDS011;1680;48.106;11.708;2023-02-21T10:21:10;4.27;;;1.77;;
1831;SDS011;1680;48.106;11.708;2023-02-21T10:23:43;3.13;;;1.73;;
1831;SDS011;1680;48.106;11.708;2023-02-21T10:26:15;2.57;;;1.90;;
1831;SDS011;1680;48.106;11.708;2023-02-21T10:28:49;2.50;;;1.70;;
1831;SDS011;1680;48.106;11.708;2023-02-21T10:31:18;2.07;;;1.30;;
1831;SDS011;1680;48.106;11.708;2023-02-21T10:33:51;4.23;;;2.03;;
1831;SDS011;1680;48.106;11.708;2023-02-21T10:36:19;1.83;;;1.60;;
1831;SDS011;1680;48.106;11.708;2023-02-21T10:38:52;3.47;;;1.60;;
1831;SDS011;1680;48.106;11.708;2023-02-21T10:41:23;4.80;;;1.70;;
1831;SDS011;1680;48.106;11.708;2023-02-21T10:43:57;2.90;;;1.60;;
1831;SDS011;1680;48.106;11.708;2023-02-21T10:46:29;2.17;;;1.93;;
1831;SDS011;1680;48.106;11.708;2023-02-21T10:49:09;2.23;;;2.03;;
1831;SDS011;1680;48.106;11.708;2023-02-21T10:51:46;5.30;;;2.00;;
1831;SDS011;1680;48.106;11.708;2023-02-21T10:54:17;6.57;;;1.70;;
1831;SDS011;1680;48.106;11.708;2023-02-21T10:56:48;2.10;;;1.60;;
1831;SDS011;1680;48.106;11.708;2023-02-21T10:59:20;1.87;;;1.40;;
1831;SDS011;1680;48.106;11.708;2023-02-21T11:01:49;2.23;;;1.60;;
1831;SDS011;1680;48.106;11.708;2023-02-21T11:04:22;2.90;;;1.57;;
1831;SDS011;1680;48.106;11.708;2023-02-21T11:06:53;1.57;;;1.47;;
1831;SDS011;1680;48.106;11.708;2023-02-21T11:12:19;3.17;;;1.50;;
1831;SDS011;1680;48.106;11.708;2023-02-21T11:17:42;2.70;;;1.40;;
1831;SDS011;1680;48.106;11.708;2023-02-21T11:20:16;1.67;;;1.33;;
1831;SDS011;1680;48.106;11.708;2023-02-21T11:22:48;2.80;;;1.80;;
1831;SDS011;1680;48.106;11.708;2023-02-21T11:25:19;2.37;;;1.43;;
1831;SDS011;1680;48.106;11.708;2023-02-21T11:28:17;3.10;;;1.70;;
1831;SDS011;1680;48.106;11.708;2023-02-21T11:30:47;2.00;;;1.33;;
1831;SDS011;1680;48.106;11.708;2023-02-21T11:33:18;2.67;;;1.43;;
1831;SDS011;1680;48.106;11.708;2023-02-21T11:35:47;1.67;;;1.50;;
1831;SDS011;1680;48.106;11.708;2023-02-21T11:41:14;2.10;;;1.60;;
1831;SDS011;1680;48.106;11.708;2023-02-21T11:43:48;2.23;;;1.40;;
1831;SDS011;1680;48.106;11.708;2023-02-21T11:46:17;1.50;;;1.27;;
1831;SDS011;1680;48.106;11.708;2023-02-21T11:48:54;1.57;;;1.47;;
1831;SDS011;1680;48.106;11.708;2023-02-21T11:51:30;1.70;;;1.50;;
1831;SDS011;1680;48.106;11.708;2023-02-21T11:54:03;3.33;;;1.30;;
1831;SDS011;1680;48.106;11.708;2023-02-21T11:59:31;1.47;;;1.37;;
1831;SDS011;1680;48.106;11.708;2023-02-21T12:05:17;1.50;;;1.37;;
1831;SDS011;1680;48.106;11.708;2023-02-21T12:07:56;2.20;;;1.40;;
1831;SDS011;1680;48.106;11.708;2023-02-21T12:10:41;3.20;;;1.50;;
1831;SDS011;1680;48.106;11.708;2023-02-21T12:13:17;1.77;;;1.27;;
1831;SDS011;1680;48.106;11.708;2023-02-21T12:15:59;1.60;;;1.23;;
1831;SDS011;1680;48.106;11.708;2023-02-21T12:18:38;2.13;;;1.20;;
1831;SDS011;1680;48.106;11.708;2023-02-21T12:21:26;2.50;;;1.60;;
1831;SDS011;1680;48.106;11.708;2023-02-21T12:24:11;2.60;;;1.67;;
1831;SDS011;1680;48.106;11.708;2023-02-21T12:26:50;2.97;;;1.30;;
1831;SDS011;1680;48.106;11.708;2023-02-21T12:29:30;1.63;;;1.40;;
1831;SDS011;1680;48.106;11.708;2023-02-21T12:32:21;1.40;;;1.20;;
1831;SDS011;1680;48.106;11.708;2023-02-21T12:38:05;1.70;;;1.50;;
1831;SDS011;1680;48.106;11.708;2023-02-21T12:40:37;1.80;;;1.37;;
1831;SDS011;1680;48.106;11.708;2023-02-21T12:43:17;2.53;;;1.63;;
1831;SDS011;1680;48.106;11.708;2023-02-21T12:45:54;1.83;;;1.30;;
1831;SDS011;1680;48.106;11.708;2023-02-21T12:48:30;2.40;;;1.50;;
1831;SDS011;1680;48.106;11.708;2023-02-21T12:51:05;7.23;;;1.60;;
1831;SDS011;1680;48.106;11.708;2023-02-21T12:53:36;1.53;;;1.40;;
1831;SDS011;1680;48.106;11.708;2023-02-21T12:56:09;1.80;;;1.10;;
1831;SDS011;1680;48.106;11.708;2023-02-21T12:58:42;2.67;;;1.10;;
1831;SDS011;1680;48.106;11.708;2023-02-21T13:01:14;2.20;;;1.50;;
1831;SDS011;1680;48.106;11.708;2023-02-21T13:03:55;5.00;;;1.57;;
1831;SDS011;1680;48.106;11.708;2023-02-21T13:06:41;1.50;;;1.20;;
1831;SDS011;1680;48.106;11.708;2023-02-21T13:09:17;4.57;;;1.60;;
1831;SDS011;1680;48.106;11.708;2023-02-21T13:11:53;1.57;;;1.47;;
1831;SDS011;1680;48.106;11.708;2023-02-21T13:14:27;4.77;;;1.90;;
1831;SDS011;1680;48.106;11.708;2023-02-21T13:16:58;2.53;;;1.50;;
1831;SDS011;1680;48.106;11.708;2023-02-21T13:19:29;1.77;;;1.50;;
1831;SDS011;1680;48.106;11.708;2023-02-21T13:25:28;5.73;;;1.60;;
1831;SDS011;1680;48.106;11.708;2023-02-21T13:28:06;1.50;;;1.40;;
1831;SDS011;1680;48.106;11.708;2023-02-21T13:30:40;5.00;;;1.40;;
1831;SDS011;1680;48.106;11.708;2023-02-21T13:33:20;1.90;;;1.43;;
1831;SDS011;1680;48.106;11.708;2023-02-21T13:35:52;2.30;;;1.63;;
1831;SDS011;1680;48.106;11.708;2023-02-21T13:38:22;2.00;;;1.23;;
1831;SDS011;1680;48.106;11.708;2023-02-21T13:40:52;3.43;;;1.60;;
1831;SDS011;1680;48.106;11.708;2023-02-21T13:43:28;2.33;;;1.60;;
1831;SDS011;1680;48.106;11.708;2023-02-21T13:46:15;3.47;;;1.37;;
1831;SDS011;1680;48.106;11.708;2023-02-21T13:51:52;1.83;;;1.10;;
1831;SDS011;1680;48.106;11.708;2023-02-21T13:57:40;1.60;;;1.40;;
1831;SDS011;1680;48.106;11.708;2023-02-21T14:03:28;1.80;;;1.47;;
1831;SDS011;1680;48.106;11.708;2023-02-21T14:08:54;2.20;;;1.33;;
1831;SDS011;1680;48.106;11.708;2023-02-21T14:11:27;1.43;;;1.30;;
1831;SDS011;1680;48.106;11.708;2023-02-21T14:13:57;1.93;;;1.33;;
1831;SDS011;1680;48.106;11.708;2023-02-21T14:16:28;2.40;;;1.17;;
1831;SDS011;1680;48.106;11.708;2023-02-21T14:18:59;2.37;;;1.20;;
1831;SDS011;1680;48.106;11.708;2023-02-21T14:21:32;1.50;;;1.10;;
1831;SDS011;1680;48.106;11.708;2023-02-21T14:24:03;1.53;;;1.43;;
1831;SDS011;1680;48.106;11.708;2023-02-21T14:26:40;2.23;;;1.37;;
1831;SDS011;1680;48.106;11.708;2023-02-21T14:29:11;1.30;;;1.10;;
1831;SDS011;1680;48.106;11.708;2023-02-21T14:31:54;1.97;;;1.20;;
1831;SDS011;1680;48.106;11.708;2023-02-21T14:34:25;2.30;;;1.47;;
1831;SDS011;1680;48.106;11.708;2023-02-21T14:36:58;2.27;;;1.40;;
1831;SDS011;1680;48.106;11.708;2023-02-21T14:39:34;1.20;;;1.07;;
1831;SDS011;1680;48.106;11.708;2023-02-21T14:42:08;1.47;;;1.20;;
1831;SDS011;1680;48.106;11.708;2023-02-21T14:45:06;1.30;;;1.10;;
1831;SDS011;1680;48.106;11.708;2023-02-21T14:50:42;1.13;;;1.03;;
1831;SDS011;1680;48.106;11.708;2023-02-21T14:53:35;4.07;;;1.30;;
1831;SDS011;1680;48.106;11.708;2023-02-21T14:56:25;3.10;;;1.43;;
1831;SDS011;1680;48.106;11.708;2023-02-21T14:59:17;2.37;;;1.40;;
1831;SDS011;1680;48.106;11.708;2023-02-21T15:02:06;2.00;;;1.33;;
1831;SDS011;1680;48.106;11.708;2023-02-21T15:04:42;1.50;;;1.40;;
1831;SDS011;1680;48.106;11.708;2023-02-21T15:07:17;1.73;;;1.43;;
1831;SDS011;1680;48.106;11.708;2023-02-21T15:10:05;2.13;;;1.57;;
1831;SDS011;1680;48.106;11.708;2023-02-21T15:12:39;2.53;;;1.50;;
1831;SDS011;1680;48.106;11.708;2023-02-21T15:15:13;1.93;;;1.27;;
1831;SDS011;1680;48.106;11.708;2023-02-21T15:17:43;1.23;;;1.13;;
1831;SDS011;1680;48.106;11.708;2023-02-21T15:20:20;1.70;;;1.30;;
1831;SDS011;1680;48.106;11.708;2023-02-21T15:22:54;1.60;;;1.47;;
1831;SDS011;1680;48.106;11.708;2023-02-21T15:25:22;2.53;;;1.50;;
1831;SDS011;1680;48.106;11.708;2023-02-21T15:30:54;1.40;;;1.30;;
1831;SDS011;1680;48.106;11.708;2023-02-21T15:33:24;2.17;;;1.30;;
1831;SDS011;1680;48.106;11.708;2023-02-21T15:35:53;3.63;;;1.20;;
1831;SDS011;1680;48.106;11.708;2023-02-21T15:38:25;1.60;;;1.40;;
1831;SDS011;1680;48.106;11.708;2023-02-21T15:40:58;1.90;;;1.30;;
1831;SDS011;1680;48.106;11.708;2023-02-21T15:43:36;3.17;;;1.43;;
1831;SDS011;1680;48.106;11.708;2023-02-21T15:46:09;3.70;;;1.30;;
1831;SDS011;1680;48.106;11.708;2023-02-21T15:48:42;2.70;;;1.43;;
1831;SDS011;1680;48.106;11.708;2023-02-21T15:51:09;3.03;;;1.17;;
1831;SDS011;1680;48.106;11.708;2023-02-21T15:53:38;3.20;;;1.20;;
1831;SDS011;1680;48.106;11.708;2023-02-21T15:56:16;2.30;;;1.30;;
1831;SDS011;1680;48.106;11.708;2023-02-21T16:01:38;2.03;;;1.33;;
1831;SDS011;1680;48.106;11.708;2023-02-21T16:04:13;1.87;;;1.20;;
1831;SDS011;1680;48.106;11.708;2023-02-21T16:06:46;5.07;;;1.33;;
1831;SDS011;1680;48.106;11.708;2023-02-21T16:09:20;1.90;;;1.50;;
1831;SDS011;1680;48.106;11.708;2023-02-21T16:11:52;1.83;;;1.40;;
1831;SDS011;1680;48.106;11.708;2023-02-21T16:14:26;2.50;;;1.50;;
1831;SDS011;1680;48.106;11.708;2023-02-21T16:17:08;1.57;;;1.47;;
1831;SDS011;1680;48.106;11.708;2023-02-21T16:19:46;1.70;;;1.60;;
1831;SDS011;1680;48.106;11.708;2023-02-21T16:22:25;2.27;;;1.30;;
1831;SDS011;1680;48.106;11.708;2023-02-21T16:25:05;2.53;;;1.27;;
1831;SDS011;1680;48.106;11.708;2023-02-21T16:27:39;2.93;;;1.70;;
1831;SDS011;1680;48.106;11.708;2023-02-21T16:30:12;3.93;;;1.60;;
1831;SDS011;1680;48.106;11.708;2023-02-21T16:32:41;3.43;;;2.00;;